Terminal Aerodrome Forecast
Issued by NWS Mt. Holly, NJ

Current Version | Previous Version | Text Only | Print | Product List | Glossary On
Versions: 1 2 3 4 5 6 7 8 9 10 11 12 13 14 15 16 17 18 19 20 21 22 23 24 25
756
FTUS41 KPHI 041610 AAC
TAFILG
TAF AMD
KILG 041610Z 0416/0512 06008KT P6SM OVC009
      TEMPO 0416/0419 -SHRA
     FM042300 05010KT 6SM -DZ BR OVC008=

USA.gov is the U.S. government's official web portal to all federal, state and local government web resources and services.